Dobrodošli na spletni strani vremenske postaje Senovo. Vse informacije so informativnega značaja, saj vremenska postaja ni del državne mreže meteoroloških postaj. AKTUALNIH OBVESTIL NI.


Sneg/Led Od: 21-02-2018 00:00 Do: 23-02-2018 23:59 Opozorilo za: Sneg/Led Stopnja: Rumena info button
Veter Od: 21-02-2018 00:00 Do: 22-02-2018 23:59 Opozorilo za: Veter Stopnja: Rumena info button

Pogled proti Armezu več informacij Pogled proti Armezu


Lisca več informacij Lisca


Radar strel več informacij blitzortung!


opozorilo za sneg/led več informacij rain snow radar


Obiščite še:

Template documentation
and downloads

And another site



Weather Underground, zgodovina - Tekstovno

Dnevni povzetek za September 27, 2017 Enote:  Angleško    Metrično   Obe
« Predhodni Dan
Naslednji Dan »
Dnevni Tedenski Mesečni Letni Po meri
  Višja: Nižja: Povprečje:
Temperatura: TemperatureC °F 10.8 °F 14.4 °F
Točka rosišča: DewpointC °F 10.1 °F 12.9 °F
Vlažnost: Humidity % 75 % 91 %
Hitrost vetra: WindSpeedKMH mph 0.0 mph 1.2 mph
Sunki vetra: WindSpeedGustKMH mph - -
Veter:- - South
Zračni tlak: PressurehPa in 1022.9 in -
Padavine: 0.3 in    
Historical Graphs
 
 
Tabelarni podarki za September 27, 2017
Čas Temperatura Točka rosišča Zračni tlak Veter Hitrost vetra Sunki vetra Vlažnost Intenziteta padavin (urna)
TemperatureC °F DewpointC °F PressurehPa in Calm     Humidity % HourlyPrecipMM in
00:04 13.1 °F 12.3 °F 1023.9 in NW 0.6 mph 4.3 mph 95 % 0.0 in
00:09 13.1 °F 12.3 °F 1023.9 in NW 0.6 mph 4.3 mph 95 % 0.0 in
00:10 13.1 °F 12.3 °F 1023.9 in NW 0.6 mph 4.3 mph 95 % 0.0 in
00:15 13.0 °F 12.2 °F 1023.9 in Calm     95 % 0.0 in
00:20 13.0 °F 12.2 °F 1023.9 in NW 0.2 mph 2.6 mph 95 % 0.0 in
00:25 12.9 °F 12.1 °F 1022.9 in NNW 0.5 mph 4.7 mph 95 % 0.0 in
00:30 12.8 °F 12.0 °F 1022.9 in NNW 0.3 mph 4.7 mph 95 % 0.0 in
00:35 12.7 °F 11.9 °F 1022.9 in Calm     95 % 0.0 in
00:40 12.6 °F 11.8 °F 1022.9 in Calm   1.4 mph 95 % 0.0 in
00:45 12.5 °F 11.7 °F 1022.9 in SSW 0.3 mph 3.2 mph 95 % 0.0 in
00:50 12.5 °F 11.7 °F 1022.9 in SSW 0.3 mph 3.2 mph 95 % 0.0 in
00:55 12.4 °F 11.6 °F 1022.9 in Calm     95 % 0.0 in
01:00 12.4 °F 11.6 °F 1022.9 in WSW 0.3 mph 4.3 mph 95 % 0.0 in
01:05 12.4 °F 11.6 °F 1022.9 in West 1.3 mph 5.8 mph 95 % 0.0 in
01:10 12.3 °F 11.5 °F 1023.9 in WNW 1.0 mph 5.8 mph 95 % 0.0 in
01:15 12.2 °F 11.4 °F 1023.9 in Calm     95 % 0.0 in
01:20 12.1 °F 11.3 °F 1023.9 in Calm     95 % 0.0 in
01:25 12.0 °F 11.2 °F 1022.9 in Calm     95 % 0.0 in
01:30 11.9 °F 11.3 °F 1022.9 in Calm     96 % 0.0 in
01:32 11.9 °F 11.3 °F 1022.9 in Calm     96 % 0.0 in
01:36 11.8 °F 11.2 °F 1022.9 in Calm     96 % 0.0 in
01:41 11.8 °F 11.2 °F 1023.9 in Calm     96 % 0.0 in
01:46 11.8 °F 11.2 °F 1023.9 in Calm     96 % 0.0 in
01:52 11.8 °F 11.2 °F 1023.9 in Calm     96 % 0.0 in
01:57 11.8 °F 11.2 °F 1023.9 in Calm     96 % 0.0 in
02:02 11.8 °F 11.2 °F 1023.9 in Calm     96 % 0.0 in
02:07 11.8 °F 11.2 °F 1023.9 in Calm     96 % 0.0 in
02:12 11.8 °F 11.3 °F 1023.9 in Calm     97 % 0.0 in
02:17 11.8 °F 11.3 °F 1023.9 in Calm     97 % 0.0 in
02:22 11.9 °F 11.4 °F 1023.9 in Calm     97 % 0.0 in
02:27 11.9 °F 11.4 °F 1022.9 in Calm   4.3 mph 97 % 0.0 in
02:32 11.9 °F 11.4 °F 1022.9 in SW 0.3 mph 4.3 mph 97 % 0.0 in
02:37 11.9 °F 11.4 °F 1022.9 in WSW 0.3 mph 2.1 mph 97 % 0.0 in
02:42 11.9 °F 11.4 °F 1022.9 in Calm     97 % 0.0 in
02:47 11.9 °F 11.4 °F 1022.9 in Calm     97 % 0.0 in
02:52 11.9 °F 11.4 °F 1022.9 in Calm     97 % 0.0 in
02:57 11.9 °F 11.4 °F 1023.9 in Calm     97 % 0.0 in
03:02 11.9 °F 11.4 °F 1023.9 in Calm     97 % 0.0 in
03:07 11.9 °F 11.4 °F 1023.9 in Calm     97 % 0.0 in
03:12 11.9 °F 11.4 °F 1023.9 in Calm     97 % 0.0 in
03:13 11.9 °F 11.4 °F 1023.9 in Calm     97 % 0.0 in
03:18 11.9 °F 11.4 °F 1023.9 in Calm     97 % 0.0 in
03:23 11.9 °F 11.4 °F 1023.9 in Calm     97 % 0.0 in
03:28 12.0 °F 11.6 °F 1022.9 in Calm     97 % 0.0 in
03:33 12.0 °F 11.6 °F 1022.9 in Calm     97 % 0.0 in
03:38 12.0 °F 11.6 °F 1022.9 in Calm     97 % 0.0 in
03:43 12.0 °F 11.6 °F 1023.9 in Calm     97 % 0.0 in
03:49 12.0 °F 11.6 °F 1023.9 in Calm     97 % 0.0 in
03:54 12.0 °F 11.6 °F 1023.9 in Calm     97 % 0.0 in
03:58 12.0 °F 11.6 °F 1022.9 in Calm     97 % 0.0 in
04:03 12.0 °F 11.6 °F 1022.9 in Calm     97 % 0.0 in
04:08 12.0 °F 11.6 °F 1022.9 in Calm     97 % 0.0 in
04:09 12.0 °F 11.6 °F 1022.9 in Calm     97 % 0.0 in
04:14 12.0 °F 11.6 °F 1022.9 in Calm     97 % 0.3 in
04:19 12.1 °F 11.6 °F 1022.9 in Calm     97 % 0.3 in
04:24 12.1 °F 11.6 °F 1022.9 in Calm     97 % 0.3 in
04:29 12.1 °F 11.6 °F 1023.9 in Calm     97 % 0.3 in
04:34 12.1 °F 11.6 °F 1023.9 in Calm     97 % 0.3 in
04:39 12.1 °F 11.6 °F 1023.9 in Calm     97 % 0.3 in
04:44 12.2 °F 11.9 °F 1022.9 in Calm     98 % 0.3 in
04:46 12.2 °F 11.9 °F 1022.9 in Calm     98 % 0.3 in
04:51 12.2 °F 11.9 °F 1022.9 in Calm     98 % 0.3 in
04:56 12.2 °F 11.9 °F 1023.9 in Calm     98 % 0.3 in
05:01 12.3 °F 12.0 °F 1023.9 in Calm     98 % 0.3 in
05:06 12.3 °F 12.0 °F 1023.9 in Calm     98 % 0.3 in
05:11 12.3 °F 12.0 °F 1023.9 in Calm     98 % 0.3 in
05:16 12.3 °F 12.0 °F 1023.9 in Calm     98 % 0.0 in
05:21 12.3 °F 12.0 °F 1023.9 in Calm     98 % 0.0 in
05:23 12.3 °F 12.0 °F 1023.9 in Calm     98 % 0.0 in
05:28 12.3 °F 12.0 °F 1023.9 in Calm     98 % 0.0 in
05:29 12.3 °F 12.0 °F 1023.9 in Calm     98 % 0.0 in
05:34 12.3 °F 12.0 °F 1023.9 in Calm     98 % 0.0 in
05:39 12.4 °F 12.1 °F 1023.9 in Calm     98 % 0.0 in
05:44 12.4 °F 12.1 °F 1022.9 in Calm     98 % 0.0 in
05:49 12.4 °F 12.1 °F 1022.9 in Calm     98 % 0.0 in
05:54 12.4 °F 12.1 °F 1022.9 in Calm     98 % 0.0 in
05:59 12.4 °F 12.1 °F 1023.9 in Calm     98 % 0.0 in
06:04 12.4 °F 12.1 °F 1023.9 in Calm     98 % 0.0 in
06:09 12.4 °F 12.1 °F 1023.9 in Calm     98 % 0.0 in
06:14 12.4 °F 12.1 °F 1023.9 in Calm     98 % 0.0 in
06:19 12.4 °F 12.1 °F 1023.9 in Calm     98 % 0.0 in
06:24 12.4 °F 12.1 °F 1023.9 in Calm     98 % 0.0 in
06:29 12.4 °F 12.1 °F 1022.9 in Calm     98 % 0.0 in
06:34 12.4 °F 12.1 °F 1022.9 in Calm     98 % 0.0 in
06:39 12.4 °F 12.1 °F 1022.9 in Calm     98 % 0.0 in
06:44 12.4 °F 12.1 °F 1023.9 in Calm     98 % 0.0 in
06:49 12.4 °F 12.1 °F 1023.9 in Calm     98 % 0.0 in
06:54 12.4 °F 12.1 °F 1023.9 in Calm     98 % 0.0 in
06:59 12.4 °F 12.1 °F 1022.9 in Calm     98 % 0.0 in
07:04 12.4 °F 12.1 °F 1022.9 in Calm     98 % 0.0 in
07:09 12.4 °F 12.1 °F 1022.9 in Calm     98 % 0.0 in
07:14 12.4 °F 12.1 °F 1023.9 in Calm     98 % 0.0 in
07:19 12.4 °F 12.1 °F 1023.9 in Calm     98 % 0.0 in
07:24 12.4 °F 12.1 °F 1023.9 in Calm     98 % 0.0 in
07:29 12.4 °F 12.1 °F 1023.9 in Calm     98 % 0.0 in
07:34 12.4 °F 12.1 °F 1023.9 in Calm     98 % 0.0 in
07:39 12.4 °F 12.1 °F 1023.9 in Calm     98 % 0.0 in
07:44 12.4 °F 12.1 °F 1023.9 in Calm     98 % 0.0 in
07:49 12.5 °F 12.2 °F 1023.9 in Calm     98 % 0.0 in
07:54 12.5 °F 12.2 °F 1023.9 in Calm     98 % 0.0 in
07:59 12.6 °F 12.3 °F 1023.9 in Calm     98 % 0.0 in
08:04 12.6 °F 12.3 °F 1023.9 in Calm     98 % 0.0 in
08:09 12.6 °F 12.3 °F 1023.9 in Calm     98 % 0.0 in
08:14 12.7 °F 12.4 °F 1023.9 in Calm     98 % 0.0 in
08:19 12.7 °F 12.4 °F 1023.9 in Calm     98 % 0.0 in
08:24 12.8 °F 12.5 °F 1023.9 in Calm     98 % 0.0 in
08:29 12.8 °F 12.5 °F 1023.9 in Calm     98 % 0.0 in
08:34 12.9 °F 12.6 °F 1023.9 in Calm     98 % 0.0 in
08:39 13.1 °F 12.8 °F 1023.9 in Calm     98 % 0.0 in
08:44 13.2 °F 12.9 °F 1023.9 in Calm     98 % 0.0 in
08:49 13.3 °F 13.0 °F 1023.9 in Calm     98 % 0.0 in
08:54 13.4 °F 13.1 °F 1024.9 in SSW 0.5 mph 4.7 mph 98 % 0.0 in
08:59 13.5 °F 13.2 °F 1024.9 in SSW 1.4 mph 4.7 mph 98 % 0.0 in
09:04 13.6 °F 13.3 °F 1024.9 in SSW 1.0 mph 4.3 mph 98 % 0.0 in
09:05 13.6 °F 13.3 °F 1024.9 in SSW 0.8 mph 4.3 mph 98 % 0.0 in
09:10 13.8 °F 13.5 °F 1024.9 in Calm   2.1 mph 98 % 0.0 in
09:15 14.0 °F 13.7 °F 1024.9 in Calm     98 % 0.0 in
09:20 14.2 °F 13.9 °F 1024.9 in Calm     98 % 0.0 in
09:25 14.3 °F 14.0 °F 1024.9 in Calm     98 % 0.0 in
09:30 14.4 °F 14.1 °F 1024.9 in SSW 0.2 mph 4.0 mph 98 % 0.0 in
09:32 14.4 °F 14.1 °F 1024.9 in SSW 0.6 mph 4.0 mph 98 % 0.0 in
09:37 14.5 °F 14.2 °F 1024.9 in SSW 1.8 mph 4.0 mph 98 % 0.0 in
09:42 14.6 °F 14.3 °F 1024.9 in SSW 1.0 mph 3.5 mph 98 % 0.0 in
09:47 14.8 °F 14.5 °F 1024.9 in SW 0.6 mph 4.7 mph 98 % 0.0 in
09:52 15.0 °F 14.6 °F 1024.9 in SW 1.1 mph 4.7 mph 97 % 0.0 in
09:57 15.1 °F 14.6 °F 1024.9 in SW 0.5 mph 3.2 mph 97 % 0.0 in
10:02 15.2 °F 14.7 °F 1024.9 in NNW 0.2 mph 3.2 mph 97 % 0.0 in
10:07 15.3 °F 14.8 °F 1024.9 in NNW 0.2 mph 3.2 mph 97 % 0.0 in
10:12 15.4 °F 14.9 °F 1024.9 in Calm     97 % 0.0 in
10:17 15.5 °F 15.0 °F 1024.9 in Calm     97 % 0.0 in
10:22 15.7 °F 15.2 °F 1024.9 in Calm     97 % 0.0 in
10:27 15.8 °F 15.3 °F 1024.9 in Calm   2.1 mph 97 % 0.0 in
10:32 15.9 °F 15.4 °F 1024.9 in WSW 0.6 mph 4.7 mph 97 % 0.0 in
10:37 16.0 °F 15.4 °F 1024.9 in SW 1.9 mph 6.1 mph 96 % 0.0 in
10:42 16.0 °F 15.4 °F 1026.0 in SW 3.1 mph 6.1 mph 96 % 0.0 in
10:47 16.0 °F 15.4 °F 1026.0 in SW 3.5 mph 5.0 mph 96 % 0.0 in
10:52 16.0 °F 15.4 °F 1026.0 in SW 3.5 mph 6.4 mph 96 % 0.0 in
10:57 15.9 °F 15.3 °F 1026.0 in SW 4.2 mph 6.4 mph 96 % 0.0 in
11:02 15.9 °F 15.3 °F 1026.0 in WSW 2.7 mph 6.4 mph 96 % 0.0 in
11:07 15.8 °F 15.2 °F 1026.0 in NW 1.0 mph 5.5 mph 96 % 0.0 in
11:12 15.7 °F 15.1 °F 1026.0 in NW 2.1 mph 5.5 mph 96 % 0.0 in
11:17 15.7 °F 15.1 °F 1026.0 in NW 1.6 mph 4.7 mph 96 % 0.0 in
11:22 15.7 °F 15.1 °F 1026.0 in NNW 0.3 mph 3.2 mph 96 % 0.0 in
11:27 15.7 °F 15.1 °F 1026.0 in Calm   2.1 mph 96 % 0.0 in
11:32 15.8 °F 15.2 °F 1026.0 in SSW 0.2 mph 3.2 mph 96 % 0.0 in
11:37 15.9 °F 15.3 °F 1026.0 in SW 0.5 mph 4.3 mph 96 % 0.0 in
11:42 16.0 °F 15.2 °F 1026.0 in SW 1.4 mph 4.3 mph 95 % 0.0 in
11:47 16.1 °F 15.3 °F 1026.0 in SSW 1.8 mph 5.8 mph 95 % 0.0 in
11:52 16.1 °F 15.3 °F 1026.0 in SSW 1.9 mph 5.8 mph 95 % 0.0 in
11:57 16.2 °F 15.4 °F 1026.0 in SW 2.4 mph 5.0 mph 95 % 0.0 in
12:02 16.3 °F 15.5 °F 1026.0 in SW 2.7 mph 6.4 mph 95 % 0.0 in
12:07 16.3 °F 15.5 °F 1026.0 in SW 3.5 mph 6.4 mph 95 % 0.0 in
12:12 16.3 °F 15.3 °F 1026.0 in WSW 4.7 mph 6.1 mph 94 % 0.0 in
12:17 16.3 °F 15.3 °F 1026.0 in WSW 4.3 mph 6.1 mph 94 % 0.0 in
12:22 16.4 °F 15.4 °F 1026.0 in SW 4.0 mph 5.8 mph 94 % 0.0 in
12:27 16.5 °F 15.6 °F 1026.0 in SW 5.0 mph 6.9 mph 94 % 0.0 in
12:32 16.6 °F 15.6 °F 1026.0 in SW 5.5 mph 7.6 mph 94 % 0.0 in
12:37 16.6 °F 15.6 °F 1026.0 in SW 5.6 mph 7.6 mph 94 % 0.0 in
12:42 16.9 °F 15.9 °F 1026.0 in SW 5.0 mph 6.9 mph 94 % 0.0 in
12:47 17.1 °F 16.1 °F 1026.0 in SW 4.3 mph 6.4 mph 94 % 0.0 in
12:52 17.3 °F 16.2 °F 1026.0 in SW 3.2 mph 6.1 mph 93 % 0.0 in
12:57 17.4 °F 16.3 °F 1026.0 in SW 0.8 mph 3.2 mph 93 % 0.0 in
13:02 17.5 °F 16.2 °F 1026.0 in NE 0.8 mph 5.5 mph 92 % 0.0 in
13:07 17.7 °F 16.4 °F 1026.0 in ESE 1.9 mph 5.5 mph 92 % 0.0 in
13:12 17.8 °F 16.5 °F 1026.0 in South 2.1 mph 4.7 mph 92 % 0.0 in
13:18 17.9 °F 16.4 °F 1026.0 in SW 1.8 mph 4.7 mph 91 % 0.0 in
13:23 17.8 °F 16.3 °F 1026.0 in NNW 2.3 mph 5.8 mph 91 % 0.0 in
13:28 17.8 °F 15.9 °F 1024.9 in NE 2.7 mph 6.4 mph 89 % 0.0 in
13:33 17.7 °F 15.7 °F 1024.9 in NE 3.1 mph 7.9 mph 88 % 0.0 in
13:38 17.7 °F 15.5 °F 1024.9 in NE 3.1 mph 7.9 mph 87 % 0.0 in
13:43 17.7 °F 15.3 °F 1026.0 in NE 2.4 mph 6.9 mph 86 % 0.0 in
13:48 17.8 °F 15.4 °F 1026.0 in ESE 2.3 mph 6.1 mph 86 % 0.0 in
13:53 17.9 °F 15.5 °F 1026.0 in SE 3.2 mph 8.7 mph 86 % 0.0 in
13:58 18.0 °F 15.4 °F 1024.9 in SE 4.8 mph 9.0 mph 85 % 0.0 in
14:03 18.0 °F 15.4 °F 1024.9 in ESE 5.5 mph 10.1 mph 85 % 0.0 in
14:08 18.1 °F 15.6 °F 1024.9 in ESE 6.4 mph 13.0 mph 85 % 0.0 in
14:13 18.1 °F 15.3 °F 1024.9 in ESE 5.5 mph 13.0 mph 84 % 0.0 in
14:18 18.2 °F 15.4 °F 1024.9 in ESE 5.0 mph 11.9 mph 84 % 0.0 in
14:23 18.3 °F 15.4 °F 1024.9 in ESE 6.1 mph 12.2 mph 83 % 0.0 in
14:28 18.4 °F 15.4 °F 1024.9 in East 6.0 mph 12.2 mph 83 % 0.0 in
14:33 18.4 °F 15.3 °F 1024.9 in East 5.0 mph 12.6 mph 82 % 0.0 in
14:35 18.4 °F 15.3 °F 1024.9 in East 4.5 mph 12.6 mph 82 % 0.0 in
14:40 18.4 °F 15.1 °F 1024.9 in East 5.0 mph 12.6 mph 81 % 0.0 in
14:45 18.5 °F 15.2 °F 1024.9 in East 5.5 mph 10.5 mph 81 % 0.0 in
14:50 18.4 °F 14.9 °F 1024.9 in East 4.3 mph 10.5 mph 80 % 0.0 in
14:55 18.5 °F 14.8 °F 1024.9 in ENE 3.9 mph 8.7 mph 79 % 0.0 in
15:00 18.5 °F 14.6 °F 1024.9 in ENE 4.5 mph 8.7 mph 78 % 0.0 in
15:05 18.5 °F 14.6 °F 1024.9 in East 3.2 mph 5.8 mph 78 % 0.0 in
15:10 18.6 °F 14.7 °F 1024.9 in ESE 3.9 mph 10.1 mph 78 % 0.0 in
15:15 18.6 °F 14.7 °F 1024.9 in ESE 4.5 mph 10.1 mph 78 % 0.0 in
15:20 18.6 °F 14.7 °F 1024.9 in ESE 4.3 mph 10.1 mph 78 % 0.0 in
15:25 18.7 °F 14.8 °F 1024.9 in ESE 4.2 mph 10.1 mph 78 % 0.0 in
15:30 18.7 °F 14.8 °F 1024.9 in ESE 4.7 mph 10.1 mph 78 % 0.0 in
15:35 18.7 °F 14.8 °F 1024.9 in ESE 5.3 mph 9.3 mph 78 % 0.0 in
15:40 18.7 °F 14.6 °F 1026.0 in ESE 5.8 mph 12.2 mph 77 % 0.0 in
15:45 18.6 °F 14.5 °F 1026.0 in ESE 6.1 mph 12.2 mph 77 % 0.0 in
15:50 18.6 °F 14.1 °F 1026.0 in East 5.1 mph 9.7 mph 75 % 0.0 in
15:55 18.5 °F 14.0 °F 1026.0 in East 4.5 mph 8.7 mph 75 % 0.0 in
16:00 18.5 °F 14.0 °F 1026.0 in ESE 4.0 mph 6.9 mph 75 % 0.0 in
16:05 18.4 °F 13.9 °F 1026.0 in ESE 3.9 mph 8.7 mph 75 % 0.0 in
16:15 18.4 °F 14.1 °F 1026.0 in ESE 4.7 mph 8.7 mph 76 % 0.0 in
16:20 18.4 °F 13.9 °F 1026.0 in East 3.9 mph 7.9 mph 75 % 0.0 in
16:25 18.4 °F 14.1 °F 1026.0 in East 2.9 mph 7.9 mph 76 % 0.0 in
16:30 18.3 °F 14.0 °F 1026.0 in East 4.0 mph 9.7 mph 76 % 0.0 in
16:35 18.2 °F 13.7 °F 1026.0 in East 3.9 mph 9.7 mph 75 % 0.0 in
16:40 18.2 °F 13.9 °F 1026.0 in ENE 4.0 mph 8.7 mph 76 % 0.0 in
16:45 18.2 °F 13.9 °F 1026.0 in ENE 4.0 mph 8.7 mph 76 % 0.0 in
16:50 18.1 °F 13.8 °F 1026.0 in East 3.4 mph 7.6 mph 76 % 0.0 in
16:55 18.0 °F 13.9 °F 1026.0 in East 2.9 mph 6.9 mph 77 % 0.0 in
17:00 18.0 °F 13.9 °F 1026.0 in East 1.3 mph 4.7 mph 77 % 0.0 in
17:05 18.0 °F 14.1 °F 1026.0 in East 0.2 mph 2.6 mph 78 % 0.0 in
17:10 17.9 °F 14.2 °F 1026.0 in ENE 0.2 mph 4.3 mph 79 % 0.0 in
17:15 17.9 °F 14.2 °F 1026.0 in ENE 0.8 mph 4.3 mph 79 % 0.0 in
17:20 17.8 °F 14.1 °F 1026.0 in ENE 0.8 mph 6.4 mph 79 % 0.0 in
17:25 17.8 °F 14.1 °F 1026.0 in ENE 1.3 mph 6.4 mph 79 % 0.0 in
17:30 17.8 °F 14.3 °F 1026.0 in East 1.6 mph 5.5 mph 80 % 0.0 in
17:35 17.7 °F 14.2 °F 1026.0 in East 1.3 mph 5.5 mph 80 % 0.0 in
17:40 17.7 °F 14.2 °F 1026.0 in East 1.6 mph 5.8 mph 80 % 0.0 in
17:45 17.6 °F 14.3 °F 1026.0 in ENE 2.1 mph 5.8 mph 81 % 0.0 in
17:50 17.6 °F 14.3 °F 1026.0 in NE 2.9 mph 6.1 mph 81 % 0.0 in
17:55 17.5 °F 14.0 °F 1026.0 in NE 3.2 mph 6.4 mph 80 % 0.0 in
18:00 17.4 °F 13.9 °F 1026.0 in NE 3.2 mph 7.9 mph 80 % 0.0 in
18:05 17.3 °F 13.8 °F 1026.0 in NE 3.2 mph 7.9 mph 80 % 0.0 in
18:10 17.3 °F 13.8 °F 1026.0 in ENE 2.7 mph 8.7 mph 80 % 0.0 in
18:15 17.2 °F 13.7 °F 1026.0 in ENE 2.9 mph 8.7 mph 80 % 0.0 in
18:20 17.1 °F 13.6 °F 1026.0 in ENE 3.7 mph 9.3 mph 80 % 0.0 in
18:25 17.1 °F 13.6 °F 1026.0 in ENE 3.5 mph 9.3 mph 80 % 0.0 in
18:30 17.0 °F 13.3 °F 1026.0 in ENE 2.6 mph 6.1 mph 79 % 0.0 in
18:35 17.0 °F 13.3 °F 1026.0 in ENE 2.4 mph 6.4 mph 79 % 0.0 in
18:40 16.9 °F 13.2 °F 1027.0 in ENE 2.6 mph 6.9 mph 79 % 0.0 in
18:45 16.9 °F 13.1 °F 1027.0 in ENE 2.3 mph 6.9 mph 78 % 0.0 in
18:50 16.8 °F 12.9 °F 1027.0 in ENE 2.6 mph 6.9 mph 78 % 0.0 in
18:55 16.7 °F 12.8 °F 1026.0 in ENE 2.7 mph 9.3 mph 78 % 0.0 in
19:00 16.7 °F 12.8 °F 1026.0 in ENE 2.6 mph 9.3 mph 78 % 0.0 in
19:05 16.6 °F 12.7 °F 1026.0 in East 1.8 mph 9.3 mph 78 % 0.0 in
19:10 16.4 °F 12.6 °F 1026.0 in SE 0.8 mph 5.8 mph 78 % 0.0 in
19:15 16.3 °F 12.7 °F 1026.0 in SE 2.4 mph 6.4 mph 79 % 0.0 in
19:20 16.2 °F 12.6 °F 1026.0 in ESE 2.9 mph 6.4 mph 79 % 0.0 in
19:25 16.0 °F 12.3 °F 1026.0 in ESE 1.8 mph 5.5 mph 79 % 0.0 in
19:30 15.9 °F 12.4 °F 1026.0 in ESE 1.1 mph 5.5 mph 80 % 0.0 in
19:35 15.7 °F 12.4 °F 1026.0 in ESE 0.5 mph 5.0 mph 81 % 0.0 in
19:40 15.5 °F 12.3 °F 1026.0 in ESE 0.3 mph 5.0 mph 81 % 0.0 in
19:45 15.3 °F 12.1 °F 1026.0 in Calm     81 % 0.0 in
19:50 15.0 °F 11.9 °F 1026.0 in Calm     82 % 0.0 in
19:55 14.8 °F 11.9 °F 1026.0 in Calm     83 % 0.0 in
20:00 14.5 °F 11.7 °F 1026.0 in Calm     83 % 0.0 in
20:06 14.4 °F 11.7 °F 1026.0 in Calm     84 % 0.0 in
20:11 14.2 °F 11.6 °F 1024.9 in Calm     84 % 0.0 in
20:16 14.0 °F 11.5 °F 1024.9 in Calm     85 % 0.0 in
20:21 13.9 °F 11.6 °F 1024.9 in NW 0.2 mph 4.0 mph 86 % 0.0 in
20:26 13.8 °F 11.5 °F 1026.0 in NW 1.0 mph 5.0 mph 86 % 0.0 in
20:31 13.7 °F 11.6 °F 1026.0 in NW 0.6 mph 5.0 mph 87 % 0.0 in
20:36 13.6 °F 11.5 °F 1026.0 in Calm     87 % 0.0 in
20:41 13.6 °F 11.7 °F 1026.0 in WNW 0.6 mph 5.0 mph 88 % 0.0 in
20:46 13.5 °F 11.7 °F 1026.0 in WNW 0.6 mph 5.0 mph 89 % 0.0 in
20:51 13.4 °F 11.6 °F 1026.0 in WNW 0.2 mph 2.1 mph 89 % 0.0 in
20:56 13.3 °F 11.5 °F 1026.0 in West 0.6 mph 5.5 mph 89 % 0.0 in
21:01 13.3 °F 11.7 °F 1026.0 in West 1.3 mph 5.5 mph 90 % 0.0 in
21:06 13.3 °F 11.7 °F 1026.0 in WSW 0.8 mph 5.5 mph 90 % 0.0 in
21:11 13.2 °F 11.8 °F 1026.0 in Calm     91 % 0.0 in
21:16 13.2 °F 11.8 °F 1026.0 in Calm     91 % 0.0 in
21:21 13.1 °F 11.7 °F 1026.0 in NNW 0.6 mph 5.0 mph 91 % 0.0 in
21:26 13.1 °F 11.7 °F 1027.0 in NW 1.6 mph 5.0 mph 91 % 0.0 in
21:28 13.1 °F 11.8 °F 1027.0 in NW 2.3 mph 5.0 mph 92 % 0.0 in
21:34 13.1 °F 11.8 °F 1027.0 in NW 1.3 mph 5.0 mph 92 % 0.0 in
21:39 13.0 °F 11.7 °F 1027.0 in Calm   1.4 mph 92 % 0.0 in
21:44 13.0 °F 11.7 °F 1027.0 in Calm     92 % 0.0 in
21:49 12.9 °F 11.8 °F 1027.0 in SSW 0.2 mph 1.8 mph 93 % 0.0 in
21:54 12.8 °F 11.7 °F 1027.0 in WNW 0.3 mph 4.0 mph 93 % 0.0 in
21:59 12.7 °F 11.6 °F 1026.0 in NW 0.2 mph 4.0 mph 93 % 0.0 in
22:04 12.6 °F 11.5 °F 1026.0 in Calm     93 % 0.0 in
22:09 12.5 °F 11.4 °F 1026.0 in Calm     93 % 0.0 in
22:14 12.4 °F 11.3 °F 1027.0 in Calm     93 % 0.0 in
22:19 12.3 °F 11.2 °F 1027.0 in Calm     93 % 0.0 in
22:24 12.3 °F 11.2 °F 1027.0 in Calm     93 % 0.0 in
22:29 12.1 °F 11.0 °F 1027.0 in Calm     93 % 0.0 in
22:34 12.1 °F 11.2 °F 1027.0 in Calm     94 % 0.0 in
22:39 12.0 °F 11.1 °F 1027.0 in Calm     94 % 0.0 in
22:44 11.9 °F 10.9 °F 1027.0 in Calm     94 % 0.0 in
22:49 11.8 °F 10.9 °F 1027.0 in Calm     94 % 0.0 in
22:54 11.7 °F 10.8 °F 1027.0 in Calm     94 % 0.0 in
22:59 11.7 °F 10.8 °F 1027.0 in Calm     94 % 0.0 in
23:04 11.6 °F 10.7 °F 1027.0 in Calm     94 % 0.0 in
23:09 11.5 °F 10.6 °F 1027.0 in Calm     94 % 0.0 in
23:14 11.4 °F 10.4 °F 1027.0 in Calm     94 % 0.0 in
23:19 11.3 °F 10.4 °F 1027.0 in Calm     94 % 0.0 in
23:24 11.3 °F 10.4 °F 1027.0 in Calm     94 % 0.0 in
23:29 11.2 °F 10.3 °F 1027.0 in Calm     94 % 0.0 in
23:34 11.2 °F 10.4 °F 1027.0 in Calm     95 % 0.0 in
23:39 11.1 °F 10.3 °F 1027.0 in Calm     95 % 0.0 in
23:44 11.0 °F 10.2 °F 1027.0 in Calm     95 % 0.0 in
23:49 10.9 °F 10.1 °F 1027.0 in Calm     95 % 0.0 in
23:54 10.9 °F 10.1 °F 1027.0 in Calm     95 % 0.0 in
23:59 10.8 °F 10.1 °F 1027.0 in Calm     95 % 0.0 in
Vremenska postaja Senovo
Podatki zbrani iz Weather Underground - 3 mb

Script developed by  Jim McMurry - jmcmurry@mwt.net Adapted for the template by  Wim van der Kuil - Leuven-Template.eu

Vremenski podatki so objavljeni na:

European Weather Network

WeatherCloud

Weather Underground

AWEKAS

HAMweather, WeatherForYou, PWS Weather

MapView

Geostik

Slovenia weather network

Oprema, ki se uporablja:

Vremenski program
Cumulus

Vremenski server
Asus

Cumulus

Asus